createdAt,value
2019-04-06T00:02:28.148Z,87.90
2019-04-06T00:04:54.332Z,88.10
2019-04-06T00:07:20.522Z,87.90
2019-04-06T00:09:46.720Z,88.50
2019-04-06T00:12:12.897Z,88.60
2019-04-06T00:14:39.067Z,88.40
2019-04-06T00:17:05.288Z,88.00
2019-04-06T00:19:31.587Z,87.60
2019-04-06T00:21:57.810Z,87.50
2019-04-06T00:24:24.005Z,87.50
2019-04-06T00:26:50.205Z,87.00
2019-04-06T00:29:16.385Z,86.90
2019-04-06T00:31:50.329Z,87.30
2019-04-06T00:34:16.700Z,87.50
2019-04-06T00:36:42.854Z,87.80
2019-04-06T00:39:09.082Z,88.40
2019-04-06T00:41:35.412Z,88.50
2019-04-06T00:44:01.564Z,88.70
2019-04-06T00:46:27.775Z,89.00
2019-04-06T00:48:54.003Z,88.90
2019-04-06T00:51:20.231Z,88.60
2019-04-06T00:53:46.392Z,88.90
2019-04-06T00:56:12.581Z,89.50
2019-04-06T00:58:39.019Z,89.90
2019-04-06T01:01:05.204Z,89.90
2019-04-06T01:03:31.509Z,89.90
2019-04-06T01:05:57.668Z,90.30
2019-04-06T01:08:23.861Z,90.50
2019-04-06T01:10:50.051Z,90.30
2019-04-06T01:13:16.422Z,90.40
2019-04-06T01:15:42.603Z,90.40
2019-04-06T01:18:08.763Z,90.30
2019-04-06T01:20:34.947Z,90.30
2019-04-06T01:23:01.149Z,90.30
2019-04-06T01:25:27.317Z,90.30
2019-04-06T01:27:53.513Z,90.10
2019-04-06T01:30:19.886Z,90.10
2019-04-06T01:32:46.044Z,90.20
2019-04-06T01:35:12.192Z,90.20
2019-04-06T01:37:38.401Z,90.20
2019-04-06T01:40:05.310Z,90.20
2019-04-06T01:42:31.513Z,90.30
2019-04-06T01:44:59.537Z,90.30
2019-04-06T01:47:25.773Z,90.40
2019-04-06T01:49:51.987Z,90.30
2019-04-06T01:52:18.203Z,90.30
2019-04-06T01:54:44.505Z,90.50
2019-04-06T01:57:10.720Z,90.70
2019-04-06T01:59:36.916Z,90.90
2019-04-06T02:02:07.533Z,91.00
2019-04-06T02:04:33.785Z,91.10
2019-04-06T02:06:59.978Z,91.10
2019-04-06T02:09:26.145Z,90.80
2019-04-06T02:11:52.327Z,90.60
2019-04-06T02:14:18.490Z,90.60
2019-04-06T02:16:44.681Z,90.50
2019-04-06T02:19:10.904Z,90.30
2019-04-06T02:21:37.055Z,90.20
2019-04-06T02:24:03.315Z,90.30
2019-04-06T02:26:31.120Z,90.40
2019-04-06T02:28:57.576Z,90.50
2019-04-06T02:31:28.537Z,90.70
2019-04-06T02:34:11.642Z,90.50
2019-04-06T02:36:54.537Z,90.60
2019-04-06T02:39:25.117Z,90.70
2019-04-06T02:41:53.193Z,90.80
2019-04-06T02:44:19.433Z,90.90
2019-04-06T02:46:45.602Z,90.90
2019-04-06T02:49:11.789Z,90.80
2019-04-06T02:51:37.996Z,90.80
2019-04-06T02:54:04.167Z,90.70
2019-04-06T02:56:45.016Z,90.80
2019-04-06T02:58:58.408Z,91.00
2019-04-06T03:01:24.609Z,91.10
2019-04-06T03:03:50.768Z,91.00
2019-04-06T03:06:16.960Z,91.20
2019-04-06T03:08:43.157Z,91.30
2019-04-06T03:11:09.333Z,91.60
2019-04-06T03:13:35.554Z,91.60
2019-04-06T03:16:02.136Z,91.30
2019-04-06T03:18:28.495Z,91.00
2019-04-06T03:20:54.760Z,90.90
2019-04-06T03:23:24.282Z,90.80
2019-04-06T03:25:49.115Z,90.80
2019-04-06T03:28:15.310Z,90.90
2019-04-06T03:30:41.463Z,91.10
2019-04-06T03:33:07.632Z,91.00
2019-04-06T03:35:33.849Z,91.00
2019-04-06T03:38:00.013Z,91.20
2019-04-06T03:40:26.228Z,91.20
2019-04-06T03:42:52.407Z,91.20
2019-04-06T03:45:18.617Z,91.30
2019-04-06T03:47:44.909Z,91.50
2019-04-06T03:50:11.425Z,91.50
2019-04-06T03:52:40.606Z,91.20
2019-04-06T03:55:07.385Z,91.10
2019-04-06T03:57:33.684Z,91.00
2019-04-06T03:59:59.882Z,91.10
2019-04-06T04:02:26.268Z,91.20
2019-04-06T04:04:52.604Z,91.30
2019-04-06T04:07:19.092Z,91.20
2019-04-06T04:09:45.418Z,91.30
2019-04-06T04:12:11.630Z,91.20
2019-04-06T04:14:37.889Z,91.00
2019-04-06T04:17:04.053Z,91.10
2019-04-06T04:19:30.349Z,91.10
2019-04-06T04:21:56.519Z,91.10
2019-04-06T04:24:22.861Z,91.10
2019-04-06T04:26:49.070Z,90.90
2019-04-06T04:29:15.267Z,90.70
2019-04-06T04:31:41.421Z,90.60
2019-04-06T04:34:08.006Z,90.60
2019-04-06T04:36:34.171Z,90.80
2019-04-06T04:39:00.766Z,90.30
2019-04-06T04:41:26.955Z,90.20
2019-04-06T04:43:53.171Z,90.40
2019-04-06T04:46:19.362Z,90.40
2019-04-06T04:48:45.560Z,90.40
2019-04-06T04:51:11.835Z,90.80
2019-04-06T04:53:38.004Z,91.10
2019-04-06T04:56:04.286Z,91.10
2019-04-06T04:58:30.500Z,91.10
2019-04-06T05:00:56.660Z,91.00
2019-04-06T05:03:23.028Z,90.90
2019-04-06T05:05:49.188Z,90.60
2019-04-06T05:08:15.402Z,90.40
2019-04-06T05:10:42.740Z,90.30
2019-04-06T05:13:08.942Z,90.00
2019-04-06T05:15:54.085Z,90.00
2019-04-06T05:18:20.364Z,89.40
2019-04-06T05:20:47.140Z,89.10
2019-04-06T05:23:13.337Z,89.50
2019-04-06T05:25:39.514Z,89.80
2019-04-06T05:28:05.813Z,89.40
2019-04-06T05:30:32.028Z,88.90
2019-04-06T05:32:58.197Z,88.70
2019-04-06T05:35:24.608Z,88.70
2019-04-06T05:37:50.789Z,88.60
2019-04-06T05:40:16.941Z,87.80
2019-04-06T05:42:43.124Z,87.30
2019-04-06T05:45:09.668Z,87.50
2019-04-06T05:47:35.862Z,87.80
2019-04-06T05:50:04.660Z,87.60
2019-04-06T05:52:30.832Z,87.40
2019-04-06T05:54:57.327Z,86.90
2019-04-06T05:57:23.563Z,87.40
2019-04-06T05:59:49.725Z,87.50
2019-04-06T06:02:15.931Z,87.20
2019-04-06T06:04:42.223Z,86.90
2019-04-06T06:07:08.563Z,86.80
2019-04-06T06:09:34.840Z,86.20
2019-04-06T06:12:01.043Z,85.40
2019-04-06T06:14:27.228Z,85.20
2019-04-06T06:16:53.498Z,85.30
2019-04-06T06:19:19.669Z,84.40
2019-04-06T06:21:45.870Z,84.00
2019-04-06T06:24:12.068Z,83.20
2019-04-06T06:26:38.232Z,81.80
2019-04-06T06:29:04.659Z,80.30
2019-04-06T06:31:30.954Z,79.50
2019-04-06T06:33:57.543Z,79.60
2019-04-06T06:36:23.972Z,78.60
2019-04-06T06:38:50.187Z,77.80
2019-04-06T06:41:16.523Z,77.30
2019-04-06T06:43:45.047Z,77.60
2019-04-06T06:46:10.818Z,77.80
2019-04-06T06:48:36.990Z,78.20
2019-04-06T06:51:03.462Z,78.50
2019-04-06T06:53:29.639Z,77.80
2019-04-06T06:55:55.865Z,78.50
2019-04-06T06:58:25.726Z,78.40
2019-04-06T07:00:50.182Z,78.20
2019-04-06T07:03:16.354Z,78.00
2019-04-06T07:05:42.560Z,77.50
2019-04-06T07:08:08.757Z,77.00
2019-04-06T07:10:34.963Z,77.00
2019-04-06T07:13:01.141Z,76.80
2019-04-06T07:15:27.367Z,77.60
2019-04-06T07:17:53.552Z,77.90
2019-04-06T07:20:19.736Z,77.90
2019-04-06T07:22:45.941Z,78.20
2019-04-06T07:25:12.614Z,78.50
2019-04-06T07:27:39.027Z,77.30
2019-04-06T07:30:05.972Z,78.50
2019-04-06T07:32:32.181Z,78.40
2019-04-06T07:34:58.400Z,76.90
2019-04-06T07:37:24.574Z,76.70
2019-04-06T07:39:50.735Z,77.50
2019-04-06T07:42:16.924Z,76.90
2019-04-06T07:44:43.181Z,75.90
2019-04-06T07:47:09.415Z,75.50
2019-04-06T07:49:35.667Z,74.60
2019-04-06T07:52:01.873Z,74.20
2019-04-06T07:54:28.141Z,74.90
2019-04-06T07:56:54.383Z,74.50
2019-04-06T07:59:20.551Z,74.60
2019-04-06T08:01:48.543Z,73.70
2019-04-06T08:04:14.861Z,73.50
2019-04-06T08:06:41.109Z,72.10
2019-04-06T08:09:07.394Z,71.40
2019-04-06T08:11:33.569Z,71.50
2019-04-06T08:13:59.743Z,70.10
2019-04-06T08:16:26.008Z,71.60
2019-04-06T08:18:52.403Z,71.10
2019-04-06T08:21:19.736Z,69.40
2019-04-06T08:23:46.147Z,66.80
2019-04-06T08:26:12.308Z,67.20
2019-04-06T08:28:38.500Z,64.30
2019-04-06T08:31:04.694Z,64.90
2019-04-06T08:33:30.912Z,64.30
2019-04-06T08:35:57.178Z,62.60
2019-04-06T08:38:23.528Z,63.10
2019-04-06T08:40:49.730Z,60.40
2019-04-06T08:43:15.974Z,60.00
2019-04-06T08:45:42.179Z,60.60
2019-04-06T08:48:08.356Z,59.80
2019-04-06T08:50:34.768Z,62.00
2019-04-06T08:53:00.956Z,62.50
2019-04-06T08:55:27.216Z,62.20
2019-04-06T08:57:53.617Z,61.50
2019-04-06T09:00:20.286Z,61.90
2019-04-06T09:02:46.505Z,60.10
2019-04-06T09:05:13.028Z,59.80
2019-04-06T09:07:40.759Z,59.10
2019-04-06T09:10:09.090Z,54.40
2019-04-06T09:12:36.293Z,50.40
2019-04-06T09:15:05.583Z,45.60
2019-04-06T09:17:31.911Z,42.30
2019-04-06T09:19:58.237Z,40.50
2019-04-06T09:22:24.430Z,40.70
2019-04-06T09:24:50.664Z,37.20
2019-04-06T09:27:16.959Z,35.40
2019-04-06T09:29:43.132Z,36.90
2019-04-06T09:32:09.594Z,40.40
2019-04-06T09:34:35.908Z,40.20
2019-04-06T09:37:02.096Z,36.60
2019-04-06T09:39:28.258Z,37.20
2019-04-06T09:41:54.661Z,34.80
2019-04-06T09:44:26.076Z,34.10
2019-04-06T09:46:59.779Z,34.30
2019-04-06T09:49:27.844Z,33.70
2019-04-06T09:52:12.255Z,36.00
2019-04-06T09:54:40.353Z,34.00
2019-04-06T09:57:08.489Z,32.70
2019-04-06T09:59:48.000Z,34.40
2019-04-06T10:02:21.252Z,34.70
2019-04-06T10:04:58.104Z,34.90
2019-04-06T10:07:37.993Z,32.40
2019-04-06T10:10:12.768Z,33.30
2019-04-06T10:12:49.403Z,32.10
2019-04-06T10:15:17.656Z,33.10
2019-04-06T10:18:04.060Z,35.30
2019-04-06T10:20:37.882Z,36.30
2019-04-06T10:23:08.737Z,36.20
2019-04-06T10:25:48.727Z,32.10
2019-04-06T10:28:25.382Z,33.30
2019-04-06T10:31:11.425Z,34.40
2019-04-06T10:33:39.580Z,33.00
2019-04-06T10:36:10.442Z,32.70
2019-04-06T10:38:38.656Z,31.60
2019-04-06T10:41:18.897Z,32.30
2019-04-06T10:44:03.789Z,30.60
2019-04-06T10:46:48.707Z,32.10
2019-04-06T10:49:16.875Z,29.80
2019-04-06T10:51:53.751Z,32.60
2019-04-06T10:54:36.784Z,32.90
2019-04-06T10:57:04.894Z,33.40
2019-04-06T10:59:38.793Z,33.60
2019-04-06T11:02:23.272Z,33.80
2019-04-06T11:04:51.735Z,33.50
2019-04-06T11:07:31.623Z,35.00
2019-04-06T11:10:08.234Z,33.10
2019-04-06T11:12:38.928Z,40.00
2019-04-06T11:15:10.083Z,44.10
2019-04-06T11:17:54.454Z,42.30
2019-04-06T11:20:22.560Z,41.00
2019-04-06T11:22:56.251Z,39.90
2019-04-06T11:25:35.941Z,38.40
2019-04-06T11:28:15.672Z,38.40
2019-04-06T11:30:49.577Z,37.00
2019-04-06T11:33:26.760Z,41.70
2019-04-06T11:36:00.634Z,40.50
2019-04-06T11:38:51.810Z,38.20
2019-04-06T11:41:28.836Z,38.70
2019-04-06T11:43:58.204Z,37.60
2019-04-06T11:46:29.093Z,36.10
2019-04-06T11:49:03.226Z,35.90
2019-04-06T11:51:31.316Z,38.60
2019-04-06T11:53:59.385Z,41.50
2019-04-06T11:56:33.166Z,42.50
2019-04-06T11:59:01.420Z,41.20
2019-04-06T12:01:31.296Z,42.60
2019-04-06T12:04:03.998Z,45.40
2019-04-06T12:06:48.035Z,47.60
2019-04-06T12:09:31.517Z,48.30
2019-04-06T12:12:08.521Z,49.10
2019-04-06T12:14:51.556Z,50.80
2019-04-06T12:17:33.301Z,50.80
2019-04-06T12:20:13.808Z,51.40
2019-04-06T12:22:51.323Z,51.20
2019-04-06T12:25:35.838Z,52.20
2019-04-06T12:28:12.661Z,50.40
2019-04-06T12:30:43.677Z,50.50
2019-04-06T12:33:14.934Z,51.80
2019-04-06T12:35:43.148Z,52.40
2019-04-06T12:38:11.202Z,52.90
2019-04-06T12:40:56.311Z,52.90
2019-04-06T12:43:42.450Z,52.70
2019-04-06T12:46:27.236Z,52.40
2019-04-06T12:48:56.681Z,52.50
2019-04-06T12:51:36.756Z,52.30
2019-04-06T12:54:18.676Z,52.30
2019-04-06T12:56:49.412Z,51.90
2019-04-06T12:59:35.642Z,50.60
2019-04-06T13:02:20.274Z,49.70
2019-04-06T13:05:05.107Z,50.80
2019-04-06T13:07:36.341Z,50.20
2019-04-06T13:10:15.776Z,51.00
2019-04-06T13:13:00.273Z,50.30
2019-04-06T13:15:34.224Z,49.00
2019-04-06T13:18:08.001Z,49.90
2019-04-06T13:20:52.692Z,50.80
2019-04-06T13:23:22.008Z,50.50
2019-04-06T13:26:06.608Z,49.90
2019-04-06T13:28:34.703Z,49.20
2019-04-06T13:31:19.222Z,48.80
2019-04-06T13:33:50.344Z,47.90
2019-04-06T13:36:35.077Z,49.40
2019-04-06T13:39:09.128Z,49.30
2019-04-06T13:41:52.192Z,49.50
2019-04-06T13:44:26.070Z,50.50
2019-04-06T13:47:04.102Z,50.70
2019-04-06T13:49:35.307Z,50.40
2019-04-06T13:52:18.626Z,51.00
2019-04-06T13:55:03.172Z,51.10
2019-04-06T13:57:31.353Z,51.90
2019-04-06T14:00:16.538Z,52.30
2019-04-06T14:02:56.792Z,51.20
2019-04-06T14:05:24.963Z,51.60
2019-04-06T14:08:09.669Z,52.10
2019-04-06T14:10:54.322Z,50.80
2019-04-06T14:13:22.482Z,48.90
2019-04-06T14:15:50.554Z,50.00
2019-04-06T14:18:18.709Z,51.60
2019-04-06T14:20:52.712Z,51.50
2019-04-06T14:23:21.157Z,52.00
2019-04-06T14:25:50.051Z,52.40
2019-04-06T14:28:24.203Z,51.80
2019-04-06T14:30:53.489Z,52.50
2019-04-06T14:33:27.561Z,52.20
2019-04-06T14:36:01.413Z,53.90
2019-04-06T14:38:32.517Z,52.60
2019-04-06T14:41:12.561Z,52.60
2019-04-06T14:43:46.704Z,53.70
2019-04-06T14:46:17.453Z,53.30
2019-04-06T14:48:48.831Z,53.10
2019-04-06T14:51:17.386Z,52.80
2019-04-06T14:53:45.452Z,52.50
2019-04-06T14:56:30.240Z,52.20
2019-04-06T14:58:58.320Z,52.20
2019-04-06T15:01:45.278Z,52.20
2019-04-06T15:04:05.888Z,52.50
2019-04-06T15:06:39.642Z,53.00
2019-04-06T15:09:25.953Z,52.70
2019-04-06T15:11:54.066Z,53.00
2019-04-06T15:14:37.270Z,52.60
2019-04-06T15:17:05.350Z,53.30
2019-04-06T15:19:50.484Z,53.10
2019-04-06T15:22:18.604Z,53.70
2019-04-06T15:24:55.646Z,53.80
2019-04-06T15:27:29.422Z,53.80
2019-04-06T15:30:00.356Z,53.50
2019-04-06T15:32:34.736Z,54.10
2019-04-06T15:35:03.109Z,54.10
2019-04-06T15:37:34.252Z,54.10
2019-04-06T15:40:11.284Z,53.90
2019-04-06T15:42:39.385Z,54.60
2019-04-06T15:45:19.751Z,54.30
2019-04-06T15:48:04.178Z,54.00
2019-04-06T15:50:43.992Z,53.80
2019-04-06T15:53:20.776Z,53.70
2019-04-06T15:55:52.047Z,53.80
2019-04-06T15:58:31.976Z,54.00
2019-04-06T16:01:17.264Z,54.00
2019-04-06T16:03:48.442Z,54.30
2019-04-06T16:06:32.793Z,54.40
2019-04-06T16:09:17.236Z,55.00
2019-04-06T16:11:45.304Z,54.40
2019-04-06T16:14:16.563Z,54.00
2019-04-06T16:16:47.553Z,53.70
2019-04-06T16:19:18.873Z,53.80
2019-04-06T16:22:05.591Z,54.10
2019-04-06T16:24:33.798Z,54.30
2019-04-06T16:27:01.887Z,54.70
2019-04-06T16:29:30.388Z,55.10
2019-04-06T16:32:13.993Z,55.50
2019-04-06T16:34:42.286Z,55.60
2019-04-06T16:37:16.032Z,55.80
2019-04-06T16:39:46.857Z,56.20
2019-04-06T16:42:23.733Z,56.00
2019-04-06T16:44:51.800Z,55.90
2019-04-06T16:47:19.888Z,56.10
2019-04-06T16:49:53.988Z,56.30
2019-04-06T16:52:30.849Z,57.80
2019-04-06T16:55:10.976Z,56.90
2019-04-06T16:57:42.551Z,57.10
2019-04-06T17:00:19.587Z,57.20
2019-04-06T17:02:46.814Z,56.90
2019-04-06T17:05:20.834Z,56.70
2019-04-06T17:07:48.905Z,57.00
2019-04-06T17:10:33.746Z,57.30
2019-04-06T17:13:01.856Z,57.70
2019-04-06T17:15:48.063Z,58.10
2019-04-06T17:18:16.230Z,58.10
2019-04-06T17:20:53.068Z,58.40
2019-04-06T17:23:21.182Z,59.20
2019-04-06T17:25:49.278Z,59.40
2019-04-06T17:28:26.359Z,59.80
2019-04-06T17:30:54.481Z,60.10
2019-04-06T17:33:22.640Z,60.70
2019-04-06T17:35:50.759Z,61.00
2019-04-06T17:38:21.332Z,61.40
2019-04-06T17:40:55.892Z,61.60
2019-04-06T17:43:40.419Z,62.10
2019-04-06T17:46:26.625Z,62.40
2019-04-06T17:49:11.420Z,62.90
2019-04-06T17:51:39.587Z,63.20
2019-04-06T17:54:24.379Z,63.50
2019-04-06T17:56:55.606Z,63.70
2019-04-06T17:59:26.796Z,64.00
2019-04-06T18:02:11.426Z,64.30
2019-04-06T18:04:42.254Z,64.60
2019-04-06T18:07:10.425Z,65.00
2019-04-06T18:09:44.761Z,65.30
2019-04-06T18:12:20.012Z,65.50
2019-04-06T18:14:46.235Z,66.00
2019-04-06T18:17:15.997Z,66.20
2019-04-06T18:19:43.813Z,66.40
2019-04-06T18:22:10.480Z,66.50
2019-04-06T18:24:36.807Z,66.40
2019-04-06T18:27:03.217Z,66.70
2019-04-06T18:29:30.841Z,67.00
2019-04-06T18:32:14.176Z,67.70
2019-04-06T18:34:40.348Z,67.40
2019-04-06T18:37:08.418Z,67.50
2019-04-06T18:39:34.598Z,67.60
2019-04-06T18:42:01.966Z,68.00
2019-04-06T18:44:28.145Z,68.10
2019-04-06T18:46:54.368Z,68.30
2019-04-06T18:49:20.847Z,68.30
2019-04-06T18:51:47.079Z,68.40
2019-04-06T18:54:13.281Z,68.50
2019-04-06T18:56:39.470Z,68.60
2019-04-06T18:59:06.133Z,68.50
2019-04-06T19:01:33.676Z,68.70
2019-04-06T19:04:01.078Z,68.90
2019-04-06T19:06:27.285Z,69.00
2019-04-06T19:08:53.527Z,69.20
2019-04-06T19:11:19.872Z,69.10
2019-04-06T19:13:46.504Z,69.20
2019-04-06T19:16:12.798Z,69.20
2019-04-06T19:18:41.028Z,69.50
2019-04-06T19:21:07.340Z,69.70
2019-04-06T19:23:33.564Z,69.70
2019-04-06T19:26:00.187Z,70.00
2019-04-06T19:28:26.572Z,70.10
2019-04-06T19:30:52.804Z,70.20
2019-04-06T19:33:25.171Z,70.00
2019-04-06T19:35:47.240Z,70.20
2019-04-06T19:38:13.463Z,70.20
2019-04-06T19:40:40.832Z,70.30
2019-04-06T19:43:07.693Z,70.40
2019-04-06T19:45:33.973Z,70.70
2019-04-06T19:48:00.237Z,70.80
2019-04-06T19:50:27.432Z,70.80
2019-04-06T19:52:53.621Z,71.10
2019-04-06T19:55:20.296Z,71.20
2019-04-06T19:57:47.064Z,71.10
2019-04-06T20:00:15.047Z,71.20
2019-04-06T20:02:41.897Z,71.40
2019-04-06T20:05:08.530Z,71.70
2019-04-06T20:07:34.715Z,71.70
2019-04-06T20:10:01.226Z,71.70
2019-04-06T20:12:27.543Z,72.50
2019-04-06T20:14:53.917Z,71.70
2019-04-06T20:17:20.097Z,71.70
2019-04-06T20:19:48.200Z,72.10
2019-04-06T20:22:14.854Z,72.30
2019-04-06T20:24:41.177Z,72.50
2019-04-06T20:27:07.399Z,72.70
2019-04-06T20:29:34.123Z,72.90
2019-04-06T20:32:01.458Z,73.00
2019-04-06T20:34:28.226Z,72.80
2019-04-06T20:36:54.396Z,72.90
2019-04-06T20:39:20.600Z,72.90
2019-04-06T20:41:46.773Z,73.20
2019-04-06T20:44:13.080Z,73.30
2019-04-06T20:46:41.212Z,73.30
2019-04-06T20:49:07.665Z,73.20
2019-04-06T20:51:34.370Z,73.40
2019-04-06T20:54:00.951Z,73.60
2019-04-06T20:56:27.251Z,73.70
2019-04-06T20:58:53.468Z,74.10
2019-04-06T21:01:19.645Z,74.40
2019-04-06T21:03:45.800Z,74.60
2019-04-06T21:06:12.211Z,74.80
2019-04-06T21:08:39.000Z,75.10
2019-04-06T21:11:05.569Z,75.00
2019-04-06T21:13:31.736Z,75.20
2019-04-06T21:15:57.926Z,75.10
2019-04-06T21:18:24.356Z,75.30
2019-04-06T21:20:50.822Z,75.80
2019-04-06T21:23:17.214Z,76.00
2019-04-06T21:25:43.516Z,76.00
2019-04-06T21:28:10.033Z,76.10
2019-04-06T21:30:36.787Z,76.40
2019-04-06T21:33:03.341Z,76.50
2019-04-06T21:35:30.100Z,76.90
2019-04-06T21:37:56.285Z,77.00
2019-04-06T21:40:22.525Z,76.60
2019-04-06T21:42:48.732Z,76.50
2019-04-06T21:45:15.268Z,76.40
2019-04-06T21:47:41.590Z,76.00
2019-04-06T21:50:08.090Z,76.00
2019-04-06T21:52:35.267Z,75.90
2019-04-06T21:55:02.439Z,76.10
2019-04-06T21:57:28.696Z,76.10
2019-04-06T21:59:55.134Z,75.90
2019-04-06T22:02:21.751Z,76.00
2019-04-06T22:04:48.403Z,76.10
2019-04-06T22:07:14.675Z,76.00
2019-04-06T22:09:41.276Z,76.10
2019-04-06T22:12:08.210Z,76.20
2019-04-06T22:14:34.774Z,76.00
2019-04-06T22:17:02.718Z,76.00
2019-04-06T22:19:29.030Z,76.00
2019-04-06T22:21:55.465Z,76.00
2019-04-06T22:24:21.744Z,76.00
2019-04-06T22:26:47.930Z,76.40
2019-04-06T22:29:14.116Z,76.40
2019-04-06T22:31:40.280Z,76.60
2019-04-06T22:34:06.865Z,76.90
2019-04-06T22:36:33.248Z,77.20
2019-04-06T22:38:59.480Z,77.10
2019-04-06T22:41:26.272Z,77.10
2019-04-06T22:43:53.435Z,77.40
2019-04-06T22:46:20.171Z,77.40
2019-04-06T22:48:46.890Z,77.60
2019-04-06T22:51:13.872Z,77.70
2019-04-06T22:53:41.115Z,77.90
2019-04-06T22:56:07.273Z,77.80
2019-04-06T22:58:33.459Z,78.00
2019-04-06T23:01:07.866Z,78.20
2019-04-06T23:03:47.823Z,78.30
2019-04-06T23:06:16.331Z,78.30
2019-04-06T23:08:42.591Z,78.40
2019-04-06T23:11:09.046Z,78.40
2019-04-06T23:13:35.224Z,78.60
2019-04-06T23:16:01.407Z,79.20
2019-04-06T23:18:27.624Z,79.40
2019-04-06T23:20:53.922Z,79.60
2019-04-06T23:23:20.142Z,79.70
2019-04-06T23:25:46.494Z,78.80
2019-04-06T23:28:12.923Z,79.20
2019-04-06T23:30:39.712Z,80.30
2019-04-06T23:33:05.984Z,80.60
2019-04-06T23:35:32.946Z,81.70
2019-04-06T23:37:59.159Z,81.30
2019-04-06T23:40:25.939Z,81.10
2019-04-06T23:42:52.600Z,80.90
2019-04-06T23:45:18.873Z,81.20
2019-04-06T23:47:45.483Z,81.30
2019-04-06T23:50:12.308Z,80.90
2019-04-06T23:52:38.505Z,80.90
2019-04-06T23:55:06.653Z,81.50
2019-04-06T23:57:32.852Z,81.30
2019-04-06T23:59:59.321Z,82.40
